Byrdstown, TN

5:33 PM CDT on September 26, 2016 (GMT -0500)
Highlands @ BSF | | Change Station

Elev 1637 ft 36.49 °N, 84.86 °W | Updated 0 second ago

Clear
Clear
70.6 °F
Feels Like 72 °F
N
2.0
Wind Variable Wind from West

Today
High -- | Low -- °F
--% Chance of Precip.
Yesterday
High -- | Low -- °F
Precip. -- in
Pressure 30.04 in
Visibility 10.0 miles
Clouds Clear
Heat Index 72 °F
Dew Point 63 °F
Humidity 78%
Rainfall 0.00 in
Snow Depth Not available.
6:32 AM 6:30 PM
Waning Crescent, 16% visible
METAR KSRB 262215Z AUTO 31004KT 10SM CLR 23/19 A3004 RMK
Pressure 30.04 in
Visibility 10.0 miles
Clouds Clear
Heat Index 72 °F
Dew Point 63 °F
Humidity 78%
Rainfall 0.00 in
Snow Depth Not available.
6:32 AM 6:30 PM
Waning Crescent, 16% visible
METAR KSRB 262215Z AUTO 31004KT 10SM CLR 23/19 A3004 RMK

10-Day Weather Forecast

Almanac

Astronomy

Sep. 26, 2016 Rise Set
Actual Time
Civil Twilight
Nautical Twilight
Astronomical Twilight
Moon
Length of Visible Light
Length of Day
Tomorrow will be .
, % of the Moon is Illuminated

Today's Extremes

State Highs State Lows

Community

WunderPhotos

Upload Photos

1,941,979 photos uploaded!

WunderBlog® & News

Nearby

Air Quality

  Air Quality AQ Index Pollutant
Not available.

Snow Depth

Station Depth Elevation

Earthquake Activity

City Distance Mag. Time & Date
Minimum magnitude displayed is 2.5.

Coastal Water Temperatures

Place Temperature

Stations

Nearby Weather Stations

Station Location Temp. Windchill Dew Point Humidity Wind Precip. Elev Updated Type
                   

Watches & Warnings

There are currently no watches in effect.